Time;durP1;ratioP1;P1;durP2;ratioP2;P2;SDS_P1;SDS_P2;PMS_P1;PMS_P2;Temp;Humidity;BMP_temperature;BMP_pressure;BME280_temperature;BME280_humidity;BME280_pressure;Samples;Min_cycle;Max_cycle;Signal;HPM_P1;HPM_P2
2021/12/22 00:01:59;;;;;;;37.13;19.38;;;;;;;-4.01;100.00;102551.09;5092236;28;20488;-73
2021/12/22 00:04:25;;;;;;;36.88;18.70;;;;;;;-4.09;99.74;102540.16;5092539;28;20024;-73
2021/12/22 00:06:52;;;;;;;37.13;18.17;;;;;;;-4.13;99.98;102546.41;5096037;28;20024;-72
2021/12/22 00:09:17;;;;;;;36.20;19.48;;;;;;;-4.18;99.28;102550.00;5096622;28;20147;-73
2021/12/22 00:11:43;;;;;;;34.40;19.00;;;;;;;-4.22;99.17;102543.25;5096351;28;20480;-73
2021/12/22 00:14:09;;;;;;;30.23;15.48;;;;;;;-4.22;99.03;102543.25;5095257;28;20088;-73
2021/12/22 00:16:34;;;;;;;34.67;18.38;;;;;;;-4.25;99.71;102542.50;5096357;28;20028;-73
2021/12/22 00:19:00;;;;;;;35.95;17.25;;;;;;;-4.28;99.38;102547.81;5096349;28;20024;-72
2021/12/22 00:21:25;;;;;;;32.60;16.48;;;;;;;-4.30;99.21;102557.44;5095111;28;20372;-72
2021/12/22 00:23:51;;;;;;;33.45;16.70;;;;;;;-4.33;99.15;102552.38;5096211;28;20039;-73
2021/12/22 00:26:16;;;;;;;38.95;19.05;;;;;;;-4.35;99.24;102552.41;5096242;28;20051;-73
2021/12/22 00:28:42;;;;;;;36.70;19.27;;;;;;;-4.32;99.83;102554.03;5096301;28;20479;-72
2021/12/22 00:31:13;;;;;;;35.33;18.23;;;;;;;-4.30;99.87;102552.25;5096213;28;20034;-72
2021/12/22 00:33:46;;;;;;;36.17;18.17;;;;;;;-4.25;99.85;102547.72;5096266;28;20024;-73
2021/12/22 00:36:13;;;;;;;39.90;18.30;;;;;;;-4.27;100.00;102554.72;5096069;28;20467;-72
2021/12/22 00:38:38;;;;;;;35.60;16.63;;;;;;;-4.28;100.00;102553.03;5095988;28;20026;-72
2021/12/22 00:41:05;;;;;;;35.95;17.13;;;;;;;-4.32;99.33;102546.22;5094730;28;20031;-73
2021/12/22 00:43:30;;;;;;;39.10;18.88;;;;;;;-4.35;99.76;102536.78;5094650;28;20035;-73
2021/12/22 00:45:56;;;;;;;41.33;20.15;;;;;;;-4.33;99.18;102534.97;5095743;28;20036;-73
2021/12/22 00:48:23;;;;;;;39.90;18.42;;;;;;;-4.30;100.00;102539.22;5095861;28;20031;-73
2021/12/22 00:50:48;;;;;;;36.53;19.15;;;;;;;-4.30;100.00;102542.66;5095862;28;20062;-73
2021/12/22 00:53:14;;;;;;;33.95;17.70;;;;;;;-4.33;99.44;102542.78;5095755;28;20020;-73
2021/12/22 00:55:39;;;;;;;32.22;16.73;;;;;;;-4.32;100.00;102546.22;5095719;28;20078;-73
2021/12/22 00:58:05;;;;;;;42.42;16.80;;;;;;;-4.31;100.00;102546.19;5094385;28;20031;-73
2021/12/22 01:00:31;;;;;;;36.88;20.17;;;;;;;-4.36;100.00;102542.91;5095667;28;20028;-73
2021/12/22 01:02:57;;;;;;;39.97;19.88;;;;;;;-4.43;99.71;102537.09;5095634;28;20032;-72
2021/12/22 01:05:23;;;;;;;36.38;18.63;;;;;;;-4.41;99.85;102550.88;5095530;28;20024;-73
2021/12/22 01:07:49;;;;;;;31.02;16.00;;;;;;;-4.41;100.00;102550.03;5095446;28;20024;-72
2021/12/22 01:10:18;;;;;;;35.50;17.40;;;;;;;-4.46;99.83;102557.19;5095320;28;20497;-73
2021/12/22 01:12:43;;;;;;;30.35;16.15;;;;;;;-4.50;99.56;102555.63;5095417;28;20035;-73
2021/12/22 01:15:11;;;;;;;36.67;17.15;;;;;;;-4.51;99.63;102551.28;5095311;28;20032;-73
2021/12/22 01:17:42;;;;;;;36.33;17.42;;;;;;;-4.53;99.55;102547.88;5095274;28;20031;-73
2021/12/22 01:20:18;;;;;;;39.88;20.42;;;;;;;-4.55;98.90;102550.56;5094639;28;20035;-72
2021/12/22 01:25:12;;;;;;;33.80;15.82;;;;;;;-4.56;99.13;102554.06;5095191;28;20124;-73
2021/12/22 01:27:41;;;;;;;43.63;19.75;;;;;;;-4.58;99.64;102553.28;5094971;28;20061;-73
2021/12/22 01:30:10;;;;;;;40.80;18.38;;;;;;;-4.66;99.20;102548.38;5094995;28;20020;-73
2021/12/22 01:32:36;;;;;;;37.03;19.58;;;;;;;-4.64;98.95;102543.97;5095018;28;20024;-73
2021/12/22 01:35:04;;;;;;;36.30;16.73;;;;;;;-4.67;98.90;102536.22;5094807;28;20479;-73
2021/12/22 01:37:29;;;;;;;34.53;19.13;;;;;;;-4.72;98.92;102538.16;5094825;28;20047;-73
2021/12/22 01:39:55;;;;;;;33.40;16.88;;;;;;;-4.74;98.46;102541.72;5094758;28;20467;-73
2021/12/22 01:42:20;;;;;;;38.22;20.33;;;;;;;-4.77;98.66;102554.84;5093522;28;20136;-72
2021/12/22 01:50:48;;;;;;;32.95;15.68;;;;;;;-4.82;98.17;102544.63;5094467;28;20177;-72
2021/12/22 01:53:19;;;;;;;37.22;17.08;;;;;;;-4.83;98.81;102547.28;5094552;28;20016;-72
2021/12/22 01:55:45;;;;;;;38.92;19.30;;;;;;;-4.86;98.92;102550.84;5094465;28;20032;-73
2021/12/22 01:58:12;;;;;;;36.35;18.17;;;;;;;-4.90;98.20;102544.03;5094529;28;20023;-72
2021/12/22 02:00:37;;;;;;;32.97;18.42;;;;;;;-4.93;98.13;102541.53;5094410;28;20028;-72
2021/12/22 02:03:03;;;;;;;31.73;16.98;;;;;;;-4.95;98.56;102540.72;5094166;28;20065;-72
2021/12/22 02:05:29;;;;;;;38.45;17.98;;;;;;;-4.97;98.51;102546.00;5094284;28;20084;-72
2021/12/22 02:07:57;;;;;;;34.38;20.92;;;;;;;-5.00;98.27;102538.31;5094322;28;20102;-73
2021/12/22 02:10:36;;;;;;;37.55;17.70;;;;;;;-4.98;98.48;102546.06;5094170;28;21256;-72
2021/12/22 02:13:03;;;;;;;34.63;16.25;;;;;;;-5.01;98.92;102547.00;5094182;28;20016;-72
2021/12/22 02:15:33;;;;;;;37.25;17.55;;;;;;;-5.04;98.40;102549.72;5094155;28;20544;-72
2021/12/22 02:18:02;;;;;;;34.72;17.00;;;;;;;-5.07;98.65;102545.47;5094007;28;20058;-72
2021/12/22 02:20:27;;;;;;;34.03;17.95;;;;;;;-5.10;98.55;102548.19;5092830;28;20032;-73
2021/12/22 02:22:57;;;;;;;34.35;16.65;;;;;;;-5.10;98.86;102544.75;5093951;28;20138;-73
2021/12/22 02:25:31;;;;;;;32.58;16.13;;;;;;;-5.09;98.77;102549.03;5093467;28;20038;-73
2021/12/22 02:27:57;;;;;;;36.88;19.05;;;;;;;-5.08;98.71;102551.59;5093295;28;20028;-72
2021/12/22 02:30:26;;;;;;;34.40;18.80;;;;;;;-5.16;98.67;102539.75;5093762;28;20028;-72
2021/12/22 02:35:41;;;;;;;35.35;20.92;;;;;;;-5.05;98.78;102555.00;5093888;28;20036;-73
2021/12/22 02:38:15;;;;;;;34.03;16.13;;;;;;;-5.10;98.98;102540.38;5093747;28;20031;-72
2021/12/22 02:40:43;;;;;;;43.35;18.45;;;;;;;-5.05;99.14;102553.25;5093424;28;20027;-72
2021/12/22 02:43:09;;;;;;;42.05;20.20;;;;;;;-5.08;99.13;102549.00;5093655;28;20032;-72
2021/12/22 02:45:34;;;;;;;33.17;15.77;;;;;;;-5.10;98.86;102545.59;5093614;28;20032;-73
2021/12/22 02:48:00;;;;;;;37.72;18.08;;;;;;;-5.12;99.42;102538.75;5092879;28;20079;-72
2021/12/22 02:50:25;;;;;;;39.08;18.27;;;;;;;-5.11;98.87;102538.69;5093524;28;20024;-73
2021/12/22 02:53:04;;;;;;;33.88;19.00;;;;;;;-5.12;99.11;102530.94;5093127;28;20467;-72
2021/12/22 02:55:42;;;;;;;36.67;17.95;;;;;;;-5.09;99.45;102541.22;5093344;28;20028;-73
2021/12/22 02:58:12;;;;;;;33.17;18.02;;;;;;;-5.14;98.85;102543.97;5093257;28;20046;-73
2021/12/22 03:06:07;;;;;;;39.05;17.75;;;;;;;-5.15;98.57;102533.66;5081910;28;20043;-73
2021/12/22 03:08:32;;;;;;;39.72;19.83;;;;;;;-5.16;99.25;102540.63;5093312;28;20059;-72
2021/12/22 03:10:58;;;;;;;38.17;18.75;;;;;;;-5.22;98.97;102535.59;5093143;28;20468;-72
2021/12/22 03:13:24;;;;;;;35.47;17.67;;;;;;;-5.19;98.46;102550.25;5093250;28;20047;-72
2021/12/22 03:15:49;;;;;;;32.33;17.25;;;;;;;-5.18;99.13;102554.56;5093227;28;20523;-72
2021/12/22 03:18:16;;;;;;;33.55;16.95;;;;;;;-5.18;99.18;102551.97;5093151;28;20123;-72
2021/12/22 03:20:44;;;;;;;37.28;19.67;;;;;;;-5.24;98.85;102545.22;5093211;28;20107;-72
2021/12/22 03:23:10;;;;;;;31.50;16.35;;;;;;;-5.23;98.59;102557.31;5091724;28;20036;-72
2021/12/22 03:25:37;;;;;;;31.00;16.27;;;;;;;-5.24;98.78;102562.56;5091664;28;20028;-73
2021/12/22 03:28:04;;;;;;;35.33;15.40;;;;;;;-5.26;99.03;102564.38;5093043;28;20028;-72
2021/12/22 03:30:30;;;;;;;43.03;20.50;;;;;;;-5.24;98.45;102557.34;5093088;28;20024;-73
2021/12/22 03:32:55;;;;;;;35.42;15.77;;;;;;;-5.24;99.01;102555.63;5091511;28;20491;-72
2021/12/22 03:35:22;;;;;;;28.02;14.65;;;;;;;-5.25;98.74;102561.72;5092436;28;20119;-72
2021/12/22 03:37:51;;;;;;;31.52;15.32;;;;;;;-5.30;98.45;102558.41;5092980;28;20032;-73
2021/12/22 03:40:19;;;;;;;35.10;18.15;;;;;;;-5.29;98.43;102563.59;5093707;28;20437;-73
2021/12/22 03:42:44;;;;;;;35.13;16.27;;;;;;;-5.28;98.72;102564.44;5097020;28;20581;-72
2021/12/22 03:45:10;;;;;;;34.08;16.80;;;;;;;-5.28;98.71;102554.88;5096991;28;20055;-72
2021/12/22 03:47:35;;;;;;;35.63;16.42;;;;;;;-5.26;99.00;102548.78;5096812;28;20055;-72
2021/12/22 03:50:01;;;;;;;39.60;16.70;;;;;;;-5.23;99.64;102549.53;5096597;28;20475;-72
2021/12/22 03:52:26;;;;;;;35.38;19.35;;;;;;;-5.23;99.02;102557.31;5096821;28;20073;-72
2021/12/22 03:54:57;;;;;;;38.67;16.90;;;;;;;-5.24;99.19;102559.97;5096921;28;20028;-73
2021/12/22 03:57:24;;;;;;;31.38;15.88;;;;;;;-5.31;99.18;102544.56;5096855;28;20088;-72
2021/12/22 03:59:49;;;;;;;34.92;18.25;;;;;;;-5.29;98.70;102560.16;5096801;28;20106;-73
2021/12/22 04:02:19;;;;;;;33.35;17.55;;;;;;;-5.34;99.12;102544.69;5096589;28;20566;-73
2021/12/22 04:04:46;;;;;;;32.88;18.30;;;;;;;-5.34;98.63;102542.09;5096692;28;20074;-73
2021/12/22 04:07:12;;;;;;;35.20;16.90;;;;;;;-5.35;98.32;102553.38;5096554;28;20028;-73
2021/12/22 04:09:37;;;;;;;37.38;17.92;;;;;;;-5.37;98.84;102555.19;5096572;28;20127;-73
2021/12/22 04:12:03;;;;;;;37.13;18.70;;;;;;;-5.38;99.01;102547.44;5096515;28;20020;-73
2021/12/22 04:14:28;;;;;;;33.17;17.05;;;;;;;-5.36;98.64;102548.25;5096543;28;20114;-72
2021/12/22 04:16:53;;;;;;;41.67;18.83;;;;;;;-5.34;98.56;102549.88;5096427;28;20051;-73
2021/12/22 04:19:19;;;;;;;30.50;16.10;;;;;;;-5.33;99.18;102545.53;5096417;28;20055;-73
2021/12/22 04:21:44;;;;;;;33.35;16.63;;;;;;;-5.36;99.13;102546.47;5096259;28;20028;-73
2021/12/22 04:24:10;;;;;;;33.47;17.70;;;;;;;-5.36;98.55;102536.09;5096267;28;20055;-72
2021/12/22 04:26:36;;;;;;;32.95;17.40;;;;;;;-5.34;99.07;102541.25;5096252;28;20063;-74
2021/12/22 04:29:01;;;;;;;28.58;15.38;;;;;;;-5.36;98.93;102536.09;5096172;28;20028;-72
2021/12/22 04:31:26;;;;;;;33.60;16.05;;;;;;;-5.41;99.41;102534.53;5096160;28;20027;-72
2021/12/22 04:33:52;;;;;;;30.15;15.18;;;;;;;-5.39;99.26;102541.38;5096133;28;20077;-73
2021/12/22 04:36:18;;;;;;;38.60;17.85;;;;;;;-5.40;99.00;102531.88;5096027;28;20029;-73
2021/12/22 04:38:43;;;;;;;35.55;17.05;;;;;;;-5.40;99.38;102521.47;5094702;28;20040;-73
2021/12/22 04:41:09;;;;;;;35.80;17.98;;;;;;;-5.41;99.47;102527.59;5096013;28;20031;-73
2021/12/22 04:43:34;;;;;;;37.58;16.45;;;;;;;-5.48;98.93;102518.28;5095875;28;20127;-73
2021/12/22 04:46:00;;;;;;;28.10;14.77;;;;;;;-5.41;99.13;102527.59;5095534;28;20510;-73
2021/12/22 04:48:25;;;;;;;35.60;15.43;;;;;;;-5.42;99.18;102518.09;5094708;28;20040;-73
2021/12/22 04:50:51;;;;;;;32.45;15.23;;;;;;;-5.41;98.69;102517.19;5093866;28;20509;-73
2021/12/22 04:53:22;;;;;;;33.50;15.93;;;;;;;-5.39;99.32;102515.41;5094484;28;20020;-73
2021/12/22 04:55:47;;;;;;;36.13;17.10;;;;;;;-5.38;99.11;102516.22;5093358;28;20031;-72
2021/12/22 04:58:13;;;;;;;40.50;19.00;;;;;;;-5.37;99.15;102515.31;5094519;28;20024;-73
2021/12/22 05:00:39;;;;;;;33.00;16.00;;;;;;;-5.39;99.29;102501.56;5094858;28;20375;-72
2021/12/22 05:03:05;;;;;;;31.67;14.73;;;;;;;-5.34;98.97;102502.25;5094282;28;20039;-73
2021/12/22 05:05:31;;;;;;;31.10;16.27;;;;;;;-5.35;99.68;102498.78;5094314;28;20064;-73
2021/12/22 05:07:56;;;;;;;35.30;16.83;;;;;;;-5.33;99.73;102509.97;5094376;28;20024;-73
2021/12/22 05:10:23;;;;;;;30.52;15.55;;;;;;;-5.31;99.49;102513.38;5094230;28;20119;-73
2021/12/22 05:12:49;;;;;;;29.42;17.02;;;;;;;-5.27;99.31;102516.72;5094294;28;20027;-73
2021/12/22 05:15:21;;;;;;;34.05;16.08;;;;;;;-5.21;99.76;102510.44;5093001;28;20032;-73
2021/12/22 05:20:15;;;;;;;32.03;15.23;;;;;;;-5.11;99.92;102506.63;5094177;28;20047;-73
2021/12/22 05:22:41;;;;;;;30.10;15.90;;;;;;;-5.09;100.00;102507.41;5093583;28;20053;-73
2021/12/22 05:25:08;;;;;;;32.45;17.20;;;;;;;-5.07;100.00;102508.22;5092531;28;20032;-73
2021/12/22 05:27:35;;;;;;;35.55;16.98;;;;;;;-5.03;100.00;102516.75;5094040;28;20075;-73
2021/12/22 05:30:01;;;;;;;28.45;13.40;;;;;;;-5.02;100.00;102511.50;5094008;28;20059;-73
2021/12/22 05:32:31;;;;;;;28.85;15.05;;;;;;;-5.04;100.00;102502.91;5093838;28;20044;-73
2021/12/22 05:35:00;;;;;;;29.25;14.20;;;;;;;-5.03;100.00;102506.34;5094041;28;20508;-73
2021/12/22 05:37:26;;;;;;;34.75;16.33;;;;;;;-5.05;100.00;102501.22;5093881;28;20028;-73
2021/12/22 05:39:52;;;;;;;32.28;15.68;;;;;;;-5.05;100.00;102503.81;5093626;28;20028;-72
2021/12/22 05:42:19;;;;;;;27.10;14.15;;;;;;;-5.04;100.00;102500.31;5093764;28;20085;-73
2021/12/22 05:44:44;;;;;;;31.83;14.77;;;;;;;-5.03;99.90;102495.94;5093831;28;20016;-72
2021/12/22 05:47:10;;;;;;;26.88;14.10;;;;;;;-5.05;100.00;102498.63;5053655;28;1100746;-73
2021/12/22 05:49:36;;;;;;;37.25;16.08;;;;;;;-5.04;100.00;102491.66;5094503;28;20032;-73
2021/12/22 05:52:02;;;;;;;30.58;15.07;;;;;;;-5.04;100.00;102492.50;5094473;28;20028;-73
2021/12/22 05:54:27;;;;;;;23.67;13.18;;;;;;;-5.11;100.00;102471.06;5094156;28;20023;-73
2021/12/22 05:56:53;;;;;;;34.15;15.48;;;;;;;-5.04;100.00;102482.09;5094609;28;20386;-73
2021/12/22 05:59:18;;;;;;;28.17;13.90;;;;;;;-5.09;100.00;102478.81;5094546;28;20032;-73
2021/12/22 06:01:43;;;;;;;30.50;14.43;;;;;;;-5.08;99.82;102478.75;5094418;28;20020;-73
2021/12/22 06:04:09;;;;;;;33.13;15.45;;;;;;;-5.10;99.91;102485.75;5092064;28;20532;-73
2021/12/22 06:06:34;;;;;;;32.85;15.50;;;;;;;-5.13;99.94;102491.09;5094269;28;20119;-73
2021/12/22 06:08:59;;;;;;;30.08;13.88;;;;;;;-5.14;99.74;102483.31;5094316;28;20058;-72
2021/12/22 06:11:25;;;;;;;33.08;13.95;;;;;;;-5.18;100.00;102480.00;5094078;28;20398;-72
2021/12/22 06:13:50;;;;;;;33.67;15.40;;;;;;;-5.18;100.00;102489.56;5094218;28;20031;-72
2021/12/22 06:16:16;;;;;;;29.63;14.52;;;;;;;-5.24;99.71;102482.81;5094094;28;20028;-71
2021/12/22 06:18:44;;;;;;;26.77;13.68;;;;;;;-5.24;99.53;102494.94;5094160;28;20097;-73
2021/12/22 06:21:13;;;;;;;32.38;13.77;;;;;;;-5.28;99.71;102492.47;5093967;28;20516;-73
2021/12/22 06:23:39;;;;;;;32.15;15.48;;;;;;;-5.28;99.24;102497.66;5093870;28;20487;-72
2021/12/22 06:26:05;;;;;;;26.92;14.00;;;;;;;-5.25;99.43;102503.66;5093952;28;20055;-73
2021/12/22 06:28:30;;;;;;;29.02;13.60;;;;;;;-5.27;99.98;102495.91;5093848;28;20028;-73
2021/12/22 06:30:56;;;;;;;28.77;13.57;;;;;;;-5.29;99.73;102490.78;5093676;28;20058;-73
2021/12/22 06:33:21;;;;;;;26.95;12.30;;;;;;;-5.36;99.41;102488.44;5093997;28;20024;-73
2021/12/22 06:35:47;;;;;;;25.05;14.63;;;;;;;-5.35;99.81;102490.13;5093833;28;20040;-72
2021/12/22 06:38:14;;;;;;;28.88;14.48;;;;;;;-5.34;99.85;102492.69;5093783;28;20051;-72
2021/12/22 06:40:39;;;;;;;30.88;14.85;;;;;;;-5.30;100.00;102489.06;5092356;28;20024;-72
2021/12/22 06:43:05;;;;;;;24.63;13.13;;;;;;;-5.29;99.42;102485.56;5093563;28;20509;-72
2021/12/22 06:45:30;;;;;;;26.63;15.20;;;;;;;-5.29;99.58;102487.34;5092215;28;20144;-72
2021/12/22 06:47:56;;;;;;;33.58;14.10;;;;;;;-5.41;99.76;102486.00;5093157;28;20043;-73
2021/12/22 06:50:21;;;;;;;24.50;14.63;;;;;;;-5.36;99.56;102504.88;5092922;28;20438;-72
2021/12/22 06:52:46;;;;;;;28.08;13.88;;;;;;;-5.40;99.23;102503.28;5092047;28;20483;-73
2021/12/22 06:55:12;;;;;;;23.83;12.43;;;;;;;-5.38;99.52;102505.84;5093032;28;20118;-73
2021/12/22 06:57:37;;;;;;;19.52;11.88;;;;;;;-5.38;100.00;102504.09;5092098;28;20151;-72
2021/12/22 07:00:07;;;;;;;24.13;13.02;;;;;;;-5.37;100.00;102505.78;5093224;28;20463;-73
2021/12/22 07:02:36;;;;;;;30.10;12.93;;;;;;;-5.42;99.73;102505.09;5093119;28;20035;-73
2021/12/22 07:05:06;;;;;;;25.48;11.77;;;;;;;-5.42;99.71;102501.63;5093187;28;20024;-72
2021/12/22 07:07:31;;;;;;;24.77;14.45;;;;;;;-5.44;99.72;102501.69;5093254;28;20153;-73
2021/12/22 07:09:57;;;;;;;23.90;12.48;;;;;;;-5.38;99.13;102506.69;5093175;28;20119;-72
2021/12/22 07:12:22;;;;;;;27.23;15.32;;;;;;;-5.38;99.83;102511.88;5093092;28;20395;-72
2021/12/22 07:14:48;;;;;;;25.20;12.60;;;;;;;-5.43;99.94;102499.94;5092957;28;20028;-73
2021/12/22 07:17:13;;;;;;;24.08;12.50;;;;;;;-5.44;99.39;102512.09;5093141;28;20779;-73
2021/12/22 07:19:39;;;;;;;27.00;12.27;;;;;;;-5.49;99.12;102498.41;5091761;28;20558;-72
2021/12/22 07:22:04;;;;;;;27.55;13.25;;;;;;;-5.51;99.28;102495.84;5093062;28;20028;-73
2021/12/22 07:24:29;;;;;;;23.40;12.20;;;;;;;-5.53;99.27;102491.59;5092979;28;20032;-72
2021/12/22 07:26:55;;;;;;;34.67;13.95;;;;;;;-5.53;99.19;102484.69;5092768;28;20031;-72
2021/12/22 07:29:20;;;;;;;25.15;12.60;;;;;;;-5.52;99.94;102495.91;5091311;28;20149;-72
2021/12/22 07:31:45;;;;;;;26.55;13.13;;;;;;;-5.53;99.61;102482.09;5080668;28;20074;-72
2021/12/22 07:34:19;;;;;;;26.58;14.77;;;;;;;-5.53;99.75;102486.41;5069654;28;20031;-72
2021/12/22 07:36:59;;;;;;;32.88;12.48;;;;;;;-5.51;99.53;102500.19;5089231;28;20376;-73
2021/12/22 07:39:25;;;;;;;26.80;11.65;;;;;;;-5.54;99.62;102493.34;5089152;28;20556;-72
2021/12/22 07:41:50;;;;;;;27.17;12.57;;;;;;;-5.56;99.32;102499.50;5088946;28;20115;-73
2021/12/22 07:44:16;;;;;;;22.98;11.23;;;;;;;-5.60;99.13;102493.56;5088875;28;20028;-73
2021/12/22 07:46:42;;;;;;;25.92;12.60;;;;;;;-5.59;99.31;102491.81;5088583;28;20107;-73
2021/12/22 07:49:07;;;;;;;29.08;13.30;;;;;;;-5.55;99.08;102496.88;5089202;28;20108;-73
2021/12/22 07:51:32;;;;;;;24.95;13.18;;;;;;;-5.52;99.57;102488.13;5073408;28;20043;-73
2021/12/22 07:54:00;;;;;;;23.70;12.23;;;;;;;-5.46;99.79;102495.69;5069674;28;20047;-73
2021/12/22 07:56:28;;;;;;;21.75;12.05;;;;;;;-5.43;99.73;102489.53;5070044;28;20035;-75
2021/12/22 07:58:54;;;;;;;26.90;12.32;;;;;;;-5.41;99.25;102500.75;5072267;28;20032;-71
2021/12/22 08:01:20;;;;;;;27.60;12.43;;;;;;;-5.39;99.25;102493.75;5072580;28;20050;-72
2021/12/22 08:03:46;;;;;;;20.83;12.13;;;;;;;-5.38;99.66;102487.63;5072550;28;20035;-72
2021/12/22 08:06:12;;;;;;;23.35;11.20;;;;;;;-5.35;99.09;102485.78;5072024;28;20029;-72
2021/12/22 08:08:37;;;;;;;25.70;13.07;;;;;;;-5.34;99.65;102474.47;5072219;28;20131;-72
2021/12/22 08:11:03;;;;;;;34.35;15.10;;;;;;;-5.24;99.94;102477.63;5072280;28;20119;-72
2021/12/22 08:13:28;;;;;;;30.95;16.85;;;;;;;-5.25;100.00;102469.84;5072411;28;20021;-73
2021/12/22 08:15:53;;;;;;;30.10;17.55;;;;;;;-5.10;100.00;102482.31;5072282;28;20052;-72
2021/12/22 08:18:20;;;;;;;32.20;13.93;;;;;;;-5.07;100.00;102480.44;5071130;28;20024;-72
2021/12/22 08:20:46;;;;;;;32.75;15.13;;;;;;;-4.98;100.00;102484.47;5072221;28;20020;-73
2021/12/22 08:23:11;;;;;;;28.27;13.75;;;;;;;-4.91;100.00;102485.94;5070931;28;20040;-72
2021/12/22 08:25:38;;;;;;;28.80;12.85;;;;;;;-4.87;100.00;102481.50;5072129;28;20042;-72
2021/12/22 08:28:04;;;;;;;29.73;14.88;;;;;;;-4.78;100.00;102473.31;5075611;28;20026;-73
2021/12/22 08:30:29;;;;;;;22.90;12.60;;;;;;;-4.70;100.00;102475.66;5075926;28;20108;-72
2021/12/22 08:32:55;;;;;;;26.63;12.98;;;;;;;-4.66;100.00;102472.03;5076053;28;20073;-71
2021/12/22 08:35:24;;;;;;;27.95;12.40;;;;;;;-4.54;100.00;102479.34;5075802;28;20058;-71
2021/12/22 08:40:34;;;;;;;28.45;13.23;;;;;;;-4.41;100.00;102480.56;5075792;28;20067;-72
2021/12/22 08:42:59;;;;;;;24.08;12.20;;;;;;;-4.34;100.00;102481.19;5075359;28;20483;-69
2021/12/22 08:45:25;;;;;;;22.30;12.60;;;;;;;-4.27;100.00;102482.66;5075513;28;20120;-72
2021/12/22 08:47:50;;;;;;;22.58;10.80;;;;;;;-4.19;99.99;102474.56;5075326;28;20127;-73
2021/12/22 08:50:18;;;;;;;23.58;11.07;;;;;;;-4.10;99.91;102468.13;5075120;28;20032;-73
2021/12/22 08:52:44;;;;;;;27.02;12.77;;;;;;;-4.01;100.00;102473.81;5075407;28;20360;-72
2021/12/22 08:55:09;;;;;;;27.13;12.88;;;;;;;-3.90;99.70;102477.72;5075450;28;20036;-73
2021/12/22 08:57:35;;;;;;;23.17;11.40;;;;;;;-3.84;99.31;102477.47;5075264;28;20103;-70
2021/12/22 09:00:06;;;;;;;24.98;12.43;;;;;;;-3.71;99.66;102476.06;5073461;28;20028;-72
2021/12/22 09:02:32;;;;;;;25.38;12.35;;;;;;;-3.64;99.64;102468.81;5074840;28;20067;-72
2021/12/22 09:04:57;;;;;;;24.83;12.90;;;;;;;-3.59;99.37;102474.69;5075078;28;20056;-72
2021/12/22 09:07:22;;;;;;;21.67;12.65;;;;;;;-3.56;99.31;102475.41;5073786;28;20036;-72
2021/12/22 09:09:48;;;;;;;25.17;12.57;;;;;;;-3.52;99.25;102482.19;5075173;28;20028;-72
2021/12/22 09:12:14;;;;;;;25.95;13.65;;;;;;;-3.50;98.91;102483.91;5074984;28;20028;-71
2021/12/22 09:14:40;;;;;;;25.90;13.05;;;;;;;-3.44;98.57;102483.63;5075111;28;20025;-72
2021/12/22 09:17:05;;;;;;;26.50;12.68;;;;;;;-3.42;98.46;102480.03;5075088;28;20028;-72
2021/12/22 09:19:31;;;;;;;26.83;13.30;;;;;;;-3.41;98.87;102471.28;5074989;28;20078;-72
2021/12/22 09:21:56;;;;;;;24.30;13.15;;;;;;;-3.31;98.53;102475.19;5074843;28;20075;-72
2021/12/22 09:24:21;;;;;;;25.17;12.10;;;;;;;-3.22;98.77;102470.50;5074799;28;20032;-73
2021/12/22 09:26:47;;;;;;;23.85;12.60;;;;;;;-3.13;98.52;102468.31;5074846;28;20028;-72
2021/12/22 09:29:12;;;;;;;26.60;14.68;;;;;;;-3.00;98.36;102475.63;5074858;28;20186;-72
2021/12/22 09:31:38;;;;;;;27.48;13.63;;;;;;;-2.90;98.72;102476.91;5074734;28;20031;-72
2021/12/22 09:34:05;;;;;;;24.38;13.85;;;;;;;-2.78;98.17;102484.16;5074640;28;20032;-72
2021/12/22 09:36:31;;;;;;;23.15;12.32;;;;;;;-2.69;98.16;102480.31;5074554;28;20032;-72
2021/12/22 09:38:56;;;;;;;24.17;12.73;;;;;;;-2.59;98.25;102480.72;5073265;28;20464;-72
2021/12/22 09:41:21;;;;;;;26.10;14.20;;;;;;;-2.55;97.90;102475.28;5073576;28;20074;-72
2021/12/22 09:43:47;;;;;;;21.13;11.10;;;;;;;-2.50;97.05;102473.31;5074370;28;20078;-72
2021/12/22 09:46:17;;;;;;;22.50;11.32;;;;;;;-2.45;97.58;102468.72;5074327;28;20024;-72
2021/12/22 09:53:40;;;;;;;24.38;14.13;;;;;;;-2.25;96.75;102470.38;5073751;28;20380;-72
2021/12/22 09:56:06;;;;;;;26.58;12.57;;;;;;;-2.15;96.98;102464.69;5074245;28;20448;-72
2021/12/22 09:58:32;;;;;;;23.73;12.38;;;;;;;-2.08;96.52;102473.94;5074306;28;20576;-72
2021/12/22 10:00:58;;;;;;;22.65;13.10;;;;;;;-2.11;96.28;102459.25;5074107;28;20017;-72
2021/12/22 10:03:25;;;;;;;18.98;9.77;;;;;;;-2.04;96.16;102462.44;5074281;28;20528;-72
2021/12/22 10:05:52;;;;;;;25.98;11.15;;;;;;;-2.00;94.65;102461.34;5074083;28;20078;-72
2021/12/22 10:08:20;;;;;;;23.58;10.30;;;;;;;-1.99;95.05;102461.28;5074036;28;20094;-72
2021/12/22 10:11:10;;;;;;;24.83;11.25;;;;;;;-1.93;94.43;102464.53;5073839;28;20594;-72
2021/12/22 10:13:38;;;;;;;23.95;10.77;;;;;;;-1.93;94.71;102456.69;5073912;28;20032;-72
2021/12/22 10:16:30;;;;;;;22.50;10.50;;;;;;;-1.76;95.03;102459.28;5073859;28;20024;-72
2021/12/22 10:19:05;;;;;;;26.73;12.05;;;;;;;-1.69;94.96;102455.44;5072627;28;20075;-72
2021/12/22 10:21:33;;;;;;;23.10;11.82;;;;;;;-1.60;94.97;102454.13;5073829;28;20035;-71
2021/12/22 10:24:02;;;;;;;23.00;11.55;;;;;;;-1.52;94.31;102451.94;5084501;28;20012;-72
2021/12/22 10:26:27;;;;;;;23.52;9.98;;;;;;;-1.45;94.24;102450.72;5089566;28;20528;-73
2021/12/22 10:29:05;;;;;;;17.92;11.45;;;;;;;-1.40;93.40;102455.72;5089832;28;20030;-72
2021/12/22 10:31:45;;;;;;;21.80;11.00;;;;;;;-1.39;93.90;102450.44;5089825;28;20027;-73
2021/12/22 10:34:20;;;;;;;22.23;11.68;;;;;;;-1.35;93.65;102451.09;5088166;28;20028;-73
2021/12/22 10:36:57;;;;;;;23.45;11.85;;;;;;;-1.33;93.89;102447.47;5089479;28;20032;-72
2021/12/22 10:39:27;;;;;;;19.35;9.55;;;;;;;-1.29;93.69;102436.84;5089800;28;20015;-72
2021/12/22 10:42:01;;;;;;;25.00;11.30;;;;;;;-1.27;93.42;102430.59;5089765;28;20042;-73
2021/12/22 10:44:38;;;;;;;27.35;11.85;;;;;;;-1.27;93.03;102416.69;5089411;28;20475;-72
2021/12/22 10:47:20;;;;;;;19.27;10.65;;;;;;;-1.19;92.67;102423.19;5088278;28;20097;-73
2021/12/22 10:50:00;;;;;;;21.98;10.98;;;;;;;-1.11;93.11;102431.47;5089105;28;20019;-73
2021/12/22 10:52:26;;;;;;;21.75;12.63;;;;;;;-1.09;92.70;102414.88;5089416;28;20028;-71
2021/12/22 10:55:06;;;;;;;20.85;11.27;;;;;;;-1.04;92.64;102431.16;5089017;28;20031;-72
2021/12/22 10:57:35;;;;;;;21.60;10.93;;;;;;;-1.06;92.73;102415.53;5089217;28;20027;-73
2021/12/22 11:00:00;;;;;;;21.80;10.68;;;;;;;-1.05;92.78;102409.34;5088914;28;20028;-73
2021/12/22 11:02:31;;;;;;;20.13;9.88;;;;;;;-0.93;92.58;102400.00;5088184;28;20030;-73
2021/12/22 11:04:58;;;;;;;27.13;11.23;;;;;;;-0.85;93.19;102397.81;5089049;28;20063;-71
2021/12/22 11:07:28;;;;;;;19.17;10.45;;;;;;;-0.81;92.22;102391.47;5089467;28;20019;-72
2021/12/22 11:09:54;;;;;;;20.80;11.98;;;;;;;-0.71;92.42;102391.81;5089261;28;21466;-73
2021/12/22 11:12:37;;;;;;;20.02;10.90;;;;;;;-0.60;92.38;102389.44;5088577;28;20506;-73
2021/12/22 11:15:03;;;;;;;24.45;10.45;;;;;;;-0.55;91.34;102383.94;5087643;28;20475;-73
2021/12/22 11:17:29;;;;;;;20.63;11.05;;;;;;;-0.50;91.16;102376.66;5088654;28;20032;-75
2021/12/22 11:20:04;;;;;;;24.27;12.10;;;;;;;-0.41;90.68;102386.63;5087607;28;20020;-72
2021/12/22 11:22:57;;;;;;;16.55;9.35;;;;;;;-0.36;90.41;102395.06;5087084;28;20027;-73
2021/12/22 11:25:23;;;;;;;21.10;9.93;;;;;;;-0.31;90.74;102387.78;5088934;28;20039;-74
2021/12/22 11:27:50;;;;;;;21.73;10.75;;;;;;;-0.30;90.73;102383.38;5088970;28;20051;-73
2021/12/22 11:30:16;;;;;;;21.15;10.35;;;;;;;-0.33;90.63;102371.31;5087751;28;20123;-74
2021/12/22 11:32:43;;;;;;;19.88;10.70;;;;;;;-0.25;90.69;102378.72;5089189;28;20032;-73
2021/12/22 11:35:11;;;;;;;23.33;11.60;;;;;;;-0.19;90.27;102375.75;5087405;28;20085;-74
2021/12/22 11:37:37;;;;;;;21.08;10.90;;;;;;;-0.13;90.43;102367.53;5087631;28;20020;-74